Decoded Metar for UKDD (DNEPROPETROVSK in UKRAINE) (IATA:DNK) | Meteo·Mobile Aviation Weather
aviador You're here:

UKDD Decoded Metar

DNEPROPETROVSK in UKRAINE
Report Time2019-07-15 23:30:00
UTC Time2019-07-15 23:56:35
Flight Rules vfr VFR
WindCalm
Visibility9999 m
Phenomena:N/A
Clouds:N/A
Expected CloudBase > 2,400 ft AGL from Temp-Dew spread
CeilingNone
Temp19°C (ISA +5)
Dew Point13°C (68% RH)
QNH1006 hPa
Density Alt1,509 ft
Elevation489 ft
Report Wrong Elevation
Raw Report
UKDD 152330Z 00000MPS CAVOK 19/13 Q1006 R08/090070 NOSIG=

Extra information for UKDD:More info

Metar Taf Metar & Taf Last 4 Metars F.Rules Stats Wind Profile Meteogram Temp Stats Airport Information Weather charts Add Link Nearby VenuesMetar ALERT Operation Metar Decoded Social comments